createdAt,value
2023-03-30T05:42:07.439Z,96604.25
2023-03-30T05:45:13.273Z,96589.00
2023-03-30T05:48:08.944Z,96585.91
2023-03-30T05:50:55.958Z,96593.69
2023-03-30T05:53:34.699Z,96582.50
2023-03-30T05:56:18.802Z,96583.56
2023-03-30T05:58:58.914Z,96586.63
2023-03-30T06:01:47.560Z,96587.09
2023-03-30T06:04:17.541Z,96585.22
2023-03-30T06:06:45.878Z,96582.03
2023-03-30T06:09:14.057Z,96589.56
2023-03-30T06:11:43.300Z,96575.44
2023-03-30T06:14:22.787Z,96566.72
2023-03-30T06:17:17.066Z,96572.84
2023-03-30T06:19:45.636Z,96571.53
2023-03-30T06:22:13.889Z,96575.53
2023-03-30T06:24:54.049Z,96562.44
2023-03-30T06:27:22.991Z,96567.00
2023-03-30T06:29:53.215Z,96559.81
2023-03-30T06:32:22.510Z,96542.84
2023-03-30T06:34:50.677Z,96546.66
2023-03-30T06:37:21.267Z,96533.25
2023-03-30T06:39:51.164Z,96548.19
2023-03-30T06:42:19.588Z,96543.13
2023-03-30T06:45:05.927Z,96549.41
2023-03-30T06:47:34.731Z,96567.78
2023-03-30T06:50:03.615Z,96567.78
2023-03-30T06:53:07.101Z,96588.09
2023-03-30T06:55:42.704Z,96576.16
2023-03-30T06:58:14.745Z,96577.38
2023-03-30T07:00:44.299Z,96583.75
2023-03-30T07:03:39.480Z,96572.16
2023-03-30T07:06:22.736Z,96567.59
2023-03-30T07:08:51.962Z,96565.63
2023-03-30T07:11:24.042Z,96559.78
2023-03-30T07:13:55.536Z,96549.50
2023-03-30T07:16:25.035Z,96536.06
2023-03-30T07:18:54.969Z,96533.22
2023-03-30T07:21:24.204Z,96537.69
2023-03-30T07:23:52.755Z,96523.44
2023-03-30T07:26:31.246Z,96530.44
2023-03-30T07:29:06.877Z,96520.19
2023-03-30T07:31:37.414Z,96515.56
2023-03-30T07:34:07.880Z,96522.94
2023-03-30T07:36:40.942Z,96528.84
2023-03-30T07:39:09.466Z,96527.59
2023-03-30T07:41:40.815Z,96530.28
2023-03-30T07:44:09.182Z,96516.38
2023-03-30T07:46:39.118Z,96514.00
2023-03-30T07:49:09.424Z,96509.31
2023-03-30T07:51:37.813Z,96504.78
2023-03-30T07:54:13.354Z,96494.63
2023-03-30T07:57:01.094Z,96485.03
2023-03-30T07:59:29.266Z,96499.16
2023-03-30T08:02:06.951Z,96491.78
2023-03-30T08:04:47.343Z,96495.75
2023-03-30T08:07:20.502Z,96484.78
2023-03-30T08:09:52.471Z,96482.56
2023-03-30T08:12:22.703Z,96467.25
2023-03-30T08:14:50.831Z,96464.59
2023-03-30T08:17:21.804Z,96459.56
2023-03-30T08:19:50.645Z,96460.16
2023-03-30T08:22:19.192Z,96451.44
2023-03-30T08:24:47.608Z,96452.31
2023-03-30T08:27:15.779Z,96452.53
2023-03-30T08:29:43.866Z,96449.56
2023-03-30T08:32:12.106Z,96448.88
2023-03-30T08:34:41.983Z,96460.78
2023-03-30T08:37:11.231Z,96444.66
2023-03-30T08:39:39.600Z,96444.78
2023-03-30T08:42:18.355Z,96434.09
2023-03-30T08:44:52.642Z,96430.78
2023-03-30T08:47:27.796Z,96422.13
2023-03-30T08:50:08.573Z,96419.50
2023-03-30T08:52:37.849Z,96447.78
2023-03-30T08:55:06.852Z,96455.53
2023-03-30T08:57:49.320Z,96437.88
2023-03-30T09:00:27.681Z,96452.34
2023-03-30T09:03:03.499Z,96430.56
2023-03-30T09:05:37.800Z,96427.66
2023-03-30T09:08:14.561Z,96415.28
2023-03-30T09:10:46.670Z,96409.41
2023-03-30T09:13:21.762Z,96413.16
2023-03-30T09:15:53.580Z,96423.91
2023-03-30T09:18:27.145Z,96421.34
2023-03-30T09:21:00.546Z,96421.38
2023-03-30T09:23:31.305Z,96429.13
2023-03-30T09:26:09.116Z,96430.94
2023-03-30T09:28:46.288Z,96436.25
2023-03-30T09:31:21.269Z,96432.97
2023-03-30T09:33:59.284Z,96443.31
2023-03-30T09:36:40.802Z,96453.59
2023-03-30T09:39:11.159Z,96462.25
2023-03-30T09:41:52.582Z,96456.84
2023-03-30T09:44:27.609Z,96468.28
2023-03-30T09:47:00.526Z,96481.84
2023-03-30T09:49:30.668Z,96494.72
2023-03-30T09:52:05.974Z,96490.91
2023-03-30T09:54:39.273Z,96487.09
2023-03-30T09:57:22.981Z,96489.41
2023-03-30T09:59:52.937Z,96508.56
2023-03-30T10:02:22.340Z,96510.06
2023-03-30T10:05:00.988Z,96514.34
2023-03-30T10:07:33.369Z,96529.75
2023-03-30T10:10:13.579Z,96526.16
2023-03-30T10:12:42.357Z,96526.25
2023-03-30T10:15:18.277Z,96511.75
2023-03-30T10:17:48.491Z,96512.97
2023-03-30T10:20:25.727Z,96510.53
2023-03-30T10:22:57.866Z,96509.53
2023-03-30T10:25:29.766Z,96505.69
2023-03-30T10:28:03.059Z,96501.47
2023-03-30T10:30:33.636Z,96506.53
2023-03-30T10:33:03.948Z,96498.88
2023-03-30T10:35:36.832Z,96486.47
2023-03-30T10:38:10.464Z,96497.13
2023-03-30T10:40:42.387Z,96497.69
2023-03-30T10:43:15.893Z,96500.31
2023-03-30T10:45:48.303Z,96507.84
2023-03-30T10:48:30.777Z,96510.63
2023-03-30T10:51:07.819Z,96514.47
2023-03-30T10:53:48.985Z,96505.16
2023-03-30T10:56:26.108Z,96503.91
2023-03-30T10:59:07.675Z,96496.81
2023-03-30T11:01:43.026Z,96498.84
2023-03-30T11:04:23.747Z,96492.69
2023-03-30T11:06:56.913Z,96485.84
2023-03-30T11:09:33.549Z,96476.28
2023-03-30T11:12:07.035Z,96475.97
2023-03-30T11:14:47.663Z,96479.97
2023-03-30T11:17:23.828Z,96479.31
2023-03-30T11:19:56.989Z,96480.50
2023-03-30T11:22:34.527Z,96472.72
2023-03-30T11:25:09.611Z,96473.41
2023-03-30T11:27:45.098Z,96471.09
2023-03-30T11:30:19.671Z,96459.31
2023-03-30T11:32:55.336Z,96462.16
2023-03-30T11:35:32.070Z,96465.44
2023-03-30T11:38:06.553Z,96456.41
2023-03-30T11:40:43.074Z,96459.41
2023-03-30T11:43:12.525Z,96447.50
2023-03-30T11:45:53.382Z,96436.69
2023-03-30T11:48:47.517Z,96432.16
2023-03-30T11:51:28.532Z,96423.53
2023-03-30T11:54:06.514Z,96403.69
2023-03-30T11:56:41.122Z,96405.19
2023-03-30T11:59:19.200Z,96408.22
2023-03-30T12:02:01.352Z,96424.53
2023-03-30T12:04:38.792Z,96424.91
2023-03-30T12:07:15.442Z,96425.28
2023-03-30T12:09:52.904Z,96419.47
2023-03-30T12:12:32.779Z,96418.47
2023-03-30T12:15:12.448Z,96416.41
2023-03-30T12:17:46.977Z,96411.13
2023-03-30T12:20:28.949Z,96402.63
2023-03-30T12:23:03.245Z,96390.88
2023-03-30T12:25:43.366Z,96379.88
2023-03-30T12:28:15.722Z,96370.19
2023-03-30T12:30:48.612Z,96383.13
2023-03-30T12:33:20.305Z,96380.00
2023-03-30T12:35:58.938Z,96379.97
2023-03-30T12:38:38.462Z,96377.28
2023-03-30T12:41:18.456Z,96375.03
2023-03-30T12:44:19.456Z,96361.84
2023-03-30T12:47:07.005Z,96366.94
2023-03-30T12:49:47.525Z,96372.56
2023-03-30T12:52:24.806Z,96375.91
2023-03-30T12:55:11.365Z,96388.47
2023-03-30T12:57:53.446Z,96377.94
2023-03-30T13:00:36.597Z,96366.03
2023-03-30T13:03:26.329Z,96351.66
2023-03-30T13:05:57.435Z,96349.66
2023-03-30T13:08:32.932Z,96338.75
2023-03-30T13:11:10.598Z,96324.03
2023-03-30T13:13:58.083Z,96317.16
2023-03-30T13:17:03.252Z,96307.16
2023-03-30T13:19:49.805Z,96308.31
2023-03-30T13:22:31.795Z,96309.84
2023-03-30T13:25:02.898Z,96300.91
2023-03-30T13:27:34.438Z,96323.31
2023-03-30T13:30:06.691Z,96315.88
2023-03-30T13:32:54.943Z,96309.69
2023-03-30T13:35:43.149Z,96312.16
2023-03-30T13:38:37.839Z,96300.75
2023-03-30T13:41:21.878Z,96302.78
2023-03-30T13:44:07.960Z,96301.63
2023-03-30T13:46:43.861Z,96303.75
2023-03-30T13:49:22.996Z,96331.69
2023-03-30T13:51:54.004Z,96329.41
2023-03-30T13:54:27.624Z,96321.72
2023-03-30T13:57:00.947Z,96312.16
2023-03-30T13:59:32.366Z,96317.22
2023-03-30T14:02:03.066Z,96324.06
2023-03-30T14:04:32.837Z,96319.59
2023-03-30T14:07:14.105Z,96314.31
2023-03-30T14:09:42.265Z,96323.09
2023-03-30T14:12:12.806Z,96305.13
2023-03-30T14:14:47.210Z,96311.91
2023-03-30T14:17:20.410Z,96298.56
2023-03-30T14:20:03.542Z,96305.53
2023-03-30T14:22:39.946Z,96294.44
2023-03-30T14:25:24.210Z,96304.91
2023-03-30T14:27:52.517Z,96298.09
2023-03-30T14:30:23.566Z,96300.44
2023-03-30T14:33:07.308Z,96305.00
2023-03-30T14:35:39.322Z,96299.84
2023-03-30T14:38:16.799Z,96288.72
2023-03-30T14:40:48.032Z,96285.75
2023-03-30T14:43:20.773Z,96266.34
2023-03-30T14:45:50.579Z,96266.88
2023-03-30T14:48:25.178Z,96255.94
2023-03-30T14:50:53.517Z,96264.00
2023-03-30T14:53:31.041Z,96257.31
2023-03-30T14:56:02.778Z,96249.81
2023-03-30T14:58:32.833Z,96242.78
2023-03-30T15:01:06.846Z,96248.53
2023-03-30T15:03:39.812Z,96239.06
2023-03-30T15:06:09.296Z,96240.34
2023-03-30T15:08:40.939Z,96237.88
2023-03-30T15:11:13.687Z,96226.97
2023-03-30T15:13:45.280Z,96218.78
2023-03-30T15:16:17.614Z,96215.94
2023-03-30T15:18:45.803Z,96222.97
2023-03-30T15:21:14.742Z,96231.72
2023-03-30T15:23:51.334Z,96227.19
2023-03-30T15:26:21.465Z,96223.88
2023-03-30T15:28:53.119Z,96212.44
2023-03-30T15:31:21.959Z,96214.47
2023-03-30T15:33:52.720Z,96205.88
2023-03-30T15:36:23.068Z,96202.75
2023-03-30T15:38:55.608Z,96212.03
2023-03-30T15:41:27.619Z,96206.56
2023-03-30T15:43:58.035Z,96197.97
2023-03-30T15:46:28.942Z,96200.16
2023-03-30T15:48:59.871Z,96196.88
2023-03-30T15:51:33.337Z,96196.13
2023-03-30T15:54:12.911Z,96191.56
2023-03-30T15:56:47.632Z,96188.47
2023-03-30T15:59:17.796Z,96194.28
2023-03-30T16:01:52.650Z,96177.31
2023-03-30T16:04:22.941Z,96185.22
2023-03-30T16:06:52.635Z,96180.63
2023-03-30T16:09:23.039Z,96195.88
2023-03-30T16:11:51.875Z,96192.81
2023-03-30T16:14:23.842Z,96188.41
2023-03-30T16:16:53.159Z,96202.78
2023-03-30T16:19:21.337Z,96199.84
2023-03-30T16:21:49.759Z,96217.47
2023-03-30T16:24:18.020Z,96212.41
2023-03-30T16:26:47.956Z,96213.22
2023-03-30T16:29:22.196Z,96219.75
2023-03-30T16:31:51.091Z,96231.69
2023-03-30T16:34:19.799Z,96234.13
2023-03-30T16:36:48.275Z,96225.94
2023-03-30T16:39:20.627Z,96213.50
2023-03-30T16:41:51.569Z,96204.88
2023-03-30T16:44:22.411Z,96205.03
2023-03-30T16:46:52.337Z,96232.91
2023-03-30T16:49:22.817Z,96283.78
2023-03-30T16:51:53.752Z,96310.19
2023-03-30T16:54:31.994Z,96357.72
2023-03-30T16:57:04.093Z,96348.81
2023-03-30T16:59:33.998Z,96344.16
2023-03-30T17:02:27.764Z,96337.75
2023-03-30T17:04:56.441Z,96328.69
2023-03-30T17:07:25.063Z,96331.16
2023-03-30T17:09:53.254Z,96326.94
2023-03-30T17:12:23.055Z,96308.88
2023-03-30T17:14:51.553Z,96302.31
2023-03-30T17:18:33.191Z,96297.13
2023-03-30T17:21:02.085Z,96285.50
2023-03-30T17:26:40.274Z,96263.59
2023-03-30T17:29:10.856Z,96263.06
2023-03-30T17:31:39.374Z,96286.19
2023-03-30T17:34:07.795Z,96288.78
2023-03-30T17:36:35.925Z,96291.50
2023-03-30T17:39:05.572Z,96304.66
2023-03-30T17:41:35.447Z,96306.16
2023-03-30T17:44:04.443Z,96303.81
2023-03-30T17:46:34.236Z,96313.84
2023-03-30T17:49:03.459Z,96316.97
2023-03-30T17:51:31.772Z,96303.88
2023-03-30T17:54:00.038Z,96309.19
2023-03-30T17:59:21.936Z,96307.94
2023-03-30T18:01:51.978Z,96306.56
2023-03-30T18:04:20.787Z,96302.19
2023-03-30T18:06:49.466Z,96305.50
2023-03-30T18:09:17.881Z,96317.66
2023-03-30T18:11:46.236Z,96328.31
2023-03-30T18:14:14.690Z,96339.66
2023-03-30T18:16:44.371Z,96332.97
2023-03-30T18:19:14.619Z,96337.47
2023-03-30T18:21:43.378Z,96344.31
2023-03-30T18:24:11.498Z,96353.47
2023-03-30T18:26:42.975Z,96350.19
2023-03-30T18:29:20.385Z,96351.13
2023-03-30T18:31:48.743Z,96353.72
2023-03-30T18:34:19.910Z,96365.06
2023-03-30T18:36:48.330Z,96366.16
2023-03-30T18:39:20.156Z,96374.63
2023-03-30T18:41:48.889Z,96381.59
2023-03-30T18:44:17.054Z,96374.63
2023-03-30T18:46:47.914Z,96380.09
2023-03-30T18:49:20.924Z,96368.22
2023-03-30T18:51:49.696Z,96376.41
2023-03-30T18:54:17.832Z,96379.94
2023-03-30T18:56:47.809Z,96384.88
2023-03-30T18:59:16.025Z,96377.59
2023-03-30T19:01:45.926Z,96375.38
2023-03-30T19:04:15.234Z,96372.53
2023-03-30T19:06:46.317Z,96371.28
2023-03-30T19:09:17.827Z,96373.06
2023-03-30T19:11:46.061Z,96381.91
2023-03-30T19:14:14.279Z,96392.16
2023-03-30T19:16:43.267Z,96386.44
2023-03-30T19:19:15.453Z,96385.06
2023-03-30T19:21:46.545Z,96395.72
2023-03-30T19:24:14.600Z,96398.28
2023-03-30T19:26:43.571Z,96404.84
2023-03-30T19:29:13.000Z,96402.88
2023-03-30T19:31:41.144Z,96410.50
2023-03-30T19:34:09.368Z,96403.94
2023-03-30T19:36:37.416Z,96402.25
2023-03-30T19:39:08.286Z,96400.72
2023-03-30T19:41:36.381Z,96406.16
2023-03-30T19:44:05.261Z,96400.72
2023-03-30T19:46:33.488Z,96402.97
2023-03-30T19:49:01.454Z,96396.56
2023-03-30T19:51:29.827Z,96407.25
2023-03-30T19:53:58.527Z,96409.38
2023-03-30T19:56:27.934Z,96401.00
2023-03-30T19:58:56.078Z,96405.34
2023-03-30T20:01:24.847Z,96408.66
2023-03-30T20:03:53.245Z,96411.91
2023-03-30T20:06:21.921Z,96424.44
2023-03-30T20:08:50.089Z,96426.81
2023-03-30T20:11:18.247Z,96430.94
2023-03-30T20:13:47.990Z,96428.50
2023-03-30T20:16:20.680Z,96436.28
2023-03-30T20:18:54.897Z,96441.97
2023-03-30T20:21:25.197Z,96438.56
2023-03-30T20:23:53.527Z,96433.03
2023-03-30T20:26:22.715Z,96440.94
2023-03-30T20:28:52.240Z,96444.72
2023-03-30T20:31:20.708Z,96446.22
2023-03-30T20:33:49.267Z,96440.91
2023-03-30T20:36:17.914Z,96441.38
2023-03-30T20:38:47.270Z,96439.91
2023-03-30T20:41:16.265Z,96443.22
2023-03-30T20:43:56.405Z,96447.69
2023-03-30T20:46:35.508Z,96436.72
2023-03-30T20:49:03.893Z,96439.69
2023-03-30T20:51:32.613Z,96437.94
2023-03-30T20:54:01.458Z,96444.63
2023-03-30T20:56:29.743Z,96436.75
2023-03-30T20:58:58.644Z,96442.28
2023-03-30T21:01:30.407Z,96450.53
2023-03-30T21:04:00.496Z,96441.31
2023-03-30T21:06:31.697Z,96438.72
2023-03-30T21:09:01.884Z,96437.38
2023-03-30T21:11:34.130Z,96438.34
2023-03-30T21:14:03.112Z,96434.41
2023-03-30T21:16:32.851Z,96430.78
2023-03-30T21:19:01.428Z,96436.22
2023-03-30T21:21:29.374Z,96436.81
2023-03-30T21:23:58.263Z,96435.84
2023-03-30T21:26:26.936Z,96443.50
2023-03-30T21:28:55.362Z,96443.75
2023-03-30T21:31:24.092Z,96440.69
2023-03-30T21:33:54.227Z,96446.78
2023-03-30T21:36:23.270Z,96440.78
2023-03-30T21:38:51.861Z,96439.19
2023-03-30T21:41:21.391Z,96439.84
2023-03-30T21:43:50.071Z,96432.56
2023-03-30T21:46:20.145Z,96422.78
2023-03-30T21:48:52.593Z,96434.69
2023-03-30T21:51:26.426Z,96433.56
2023-03-30T21:53:56.229Z,96432.25
2023-03-30T21:56:26.252Z,96427.81
2023-03-30T21:58:54.697Z,96434.53
2023-03-30T22:01:25.153Z,96440.09
2023-03-30T22:03:53.834Z,96442.94
2023-03-30T22:06:23.855Z,96435.84
2023-03-30T22:08:52.104Z,96446.81
2023-03-30T22:11:23.160Z,96435.94
2023-03-30T22:13:54.416Z,96435.09
2023-03-30T22:16:24.770Z,96436.63
2023-03-30T22:18:53.411Z,96436.72
2023-03-30T22:21:25.174Z,96431.88
2023-03-30T22:23:54.749Z,96424.66
2023-03-30T22:26:23.618Z,96425.91
2023-03-30T22:28:52.149Z,96429.50
2023-03-30T22:31:20.690Z,96417.38
2023-03-30T22:33:49.322Z,96415.38
2023-03-30T22:36:20.551Z,96406.38
2023-03-30T22:38:51.348Z,96414.59
2023-03-30T22:41:23.851Z,96403.28
2023-03-30T22:43:52.940Z,96402.34
2023-03-30T22:46:21.673Z,96396.34
2023-03-30T22:48:51.777Z,96402.94
2023-03-30T22:51:23.654Z,96407.44
2023-03-30T22:53:54.767Z,96399.75
2023-03-30T22:56:23.470Z,96402.00
2023-03-30T22:58:51.694Z,96393.06
2023-03-30T23:01:21.637Z,96390.66
2023-03-30T23:03:50.522Z,96385.47
2023-03-30T23:06:19.916Z,96386.34
2023-03-30T23:08:48.888Z,96391.53
2023-03-30T23:11:21.608Z,96389.47
2023-03-30T23:13:49.982Z,96393.41
2023-03-30T23:16:18.180Z,96384.19
2023-03-30T23:18:46.450Z,96385.06
2023-03-30T23:21:14.668Z,96379.06
2023-03-30T23:23:42.905Z,96378.47
2023-03-30T23:26:12.538Z,96373.91
2023-03-30T23:28:43.783Z,96380.75
2023-03-30T23:31:14.363Z,96374.28
2023-03-30T23:33:43.661Z,96381.06
2023-03-30T23:36:13.960Z,96378.41
2023-03-30T23:38:42.821Z,96377.06
2023-03-30T23:41:13.673Z,96363.28
2023-03-30T23:43:44.216Z,96362.03
2023-03-30T23:46:13.625Z,96364.06
2023-03-30T23:48:42.266Z,96357.50
2023-03-30T23:51:11.154Z,96360.28
2023-03-30T23:53:40.384Z,96349.91
2023-03-30T23:56:13.091Z,96351.00
2023-03-30T23:58:43.424Z,96345.69
